• Join FlightAware (Why Join?)
  • Login
  • US Flag 
10:31PM EDT


 

Airport Tracker/Info


-or-


 

Live Flight TrackerFlight Track Log ✈ ASQ5750 ✈ 04-May-2013 ✈ KALB - KORD

Flight Track Log - Related Links

Times and Time Zones

All times are in EDT time to prevent confusion due to time zone crossing. See the ASQ5750 flight status page for this flight to view local times or setup timezone preferences in your user account.

Time Position Orientation Groundspeed Altitude Reporting Facility
EDT Latitude Longitude Course Direction KTS MPH feet Rate Location/Type
11:36AM 42.8336 -73.8331 345° North 233 268 3,800  Level Boston Center
11:37AM 42.8767 -73.8992 312° West 287 330 5,100 2,220 Climbing Boston Center
11:38AM 42.9339 -73.9914 310° West 293 337 8,300 2,760 Climbing Boston Center
11:39AM 42.9808 -74.0606 313° West 286 329 10,700 2,040 Climbing Boston Center
11:40AM 43.0481 -74.1619 312° West 304 350 12,400 1,680 Climbing Boston Center
11:41AM 43.0586 -74.2814 277° West 323 372 14,100 1,800 Climbing Boston Center
11:42AM 43.0686 -74.4353 275° West 356 410 16,000 1,560 Climbing Boston Center
11:43AM 43.0747 -74.5606 274° West 370 426 17,300 1,200 Climbing Boston Center
11:44AM 43.0842 -74.7231 275° West 385 443 18,400 1,080 Climbing Boston Center
11:45AM 43.0939 -74.8569 276° West 391 450 19,500 1,080 Climbing Boston Center
11:46AM 43.1031 -75.0108 275° West 398 458 20,600 960 Climbing Boston Center
11:47AM 43.1083 -75.1364 273° West 403 464 21,500 1,080 Climbing Boston Center
11:48AM 43.1183 -75.3244 274° West 413 475 22,800 1,020 Climbing Boston Center
11:49AM 43.1269 -75.4814 274° West 413 475 23,600 660 Climbing Boston Center
11:50AM 43.1336 -75.6097 274° West 419 482 24,200 720 Climbing Boston Center
11:51AM 43.1428 -75.8039 274° West 424 488 25,100 780 Climbing Boston Center
11:52AM 43.1525 -75.9639 275° West 429 494 25,800 660 Climbing Boston Center
11:53AM 43.1500 -76.2000 269° West 430 495 26,800 540 Climbing Toronto Center
11:54AM 43.1608 -76.3706 275° West 441 507 27,200 420 Climbing Cleveland Center
11:55AM 43.1606 -76.5356 270° West 441 507 27,700 540 Climbing Cleveland Center
11:56AM 43.1606 -76.7206 270° West 441 507 28,300 540 Climbing Cleveland Center
11:57AM 43.1578 -76.8917 269° West 441 507 28,800 480 Climbing Cleveland Center
11:58AM 43.1589 -77.0539 271° West 441 507 29,300 480 Climbing Cleveland Center
11:59AM 43.1575 -77.2219 269° West 441 507 29,800 480 Climbing Cleveland Center
12:00PM 43.1558 -77.3872 269° West 441 507 30,300 480 Climbing Cleveland Center
12:01PM 43.1542 -77.5522 269° West 441 507 30,800 480 Climbing Cleveland Center
12:02PM 43.1522 -77.7175 269° West 441 507 31,300 480 Climbing Cleveland Center
12:03PM 43.1497 -77.8797 269° West 441 507 31,800 300 Climbing Cleveland Center
12:04PM 43.1494 -78.0478 270° West 436 502 32,000 60 Climbing Cleveland Center
12:05PM 43.1467 -78.2100 269° West 441 507 32,000  Level Cleveland Center
12:06PM 43.1414 -78.3753 268° West 441 507 32,000  Level Cleveland Center
12:07PM 43.1383 -78.5461 269° West 441 507 32,000  Level Cleveland Center
12:08PM 43.1328 -78.7142 267° West 447 514 32,000  Level Cleveland Center
12:09PM 43.1292 -78.8878 268° West 447 514 32,000  Level Cleveland Center
12:10PM 43.1167 -79.0667 265° West 450 518 32,000  Level Toronto Center
12:11PM 43.1000 -79.2167 261° West 450 518 32,000  Level Toronto Center
12:12PM 43.1000 -79.4000 270° West 450 518 32,000  Level Toronto Center
12:13PM 43.1000 -79.5667 270° West 450 518 32,000  Level Toronto Center
12:14PM 43.0833 -79.7167 261° West 450 518 32,000  Level Toronto Center
12:15PM 43.0833 -79.9000 270° West 460 529 32,000  Level Toronto Center
12:16PM 43.0833 -80.0833 270° West 460 529 32,000  Level Toronto Center
12:17PM 43.0833 -80.2500 270° West 460 529 32,000  Level Toronto Center
12:18PM 43.0833 -80.4333 270° West 460 529 32,000  Level Toronto Center
12:19PM 43.0833 -80.6167 270° West 460 529 32,000  Level Toronto Center
12:20PM 43.0667 -80.8000 263° West 460 529 32,000  Level Toronto Center
12:21PM 43.0500 -80.9500 261° West 460 529 32,000  Level Toronto Center
12:22PM 43.0500 -81.1333 270° West 460 529 32,000  Level Toronto Center
12:23PM 43.0500 -81.3000 270° West 460 529 32,000  Level Toronto Center
12:24PM 43.0500 -81.4833 270° West 460 529 32,000  Level Toronto Center
12:25PM 43.0500 -81.6667 270° West 460 529 32,000  Level Toronto Center
12:26PM 43.0333 -81.8167 261° West 450 518 32,000  Level Toronto Center
12:27PM 43.0167 -82.0000 263° West 450 518 32,000  Level Toronto Center
12:28PM 43.0167 -82.1667 270° West 450 518 32,000  Level Toronto Center
12:29PM 43.0167 -82.3167 270° West 450 518 32,000  Level Toronto Center
12:30PM 43.0167 -82.5000 270° West 450 518 32,000  Level Toronto Center
12:31PM 43.0000 -82.6667 262° West 450 518 32,000  Level Toronto Center
12:32PM 43.0131 -82.7411 284° West 456 525 32,000  Level Cleveland Center
12:33PM 43.0056 -82.9169 267° West 461 531 32,000  Level Cleveland Center
12:34PM 42.9978 -83.0869 266° West 461 531 32,000  Level Cleveland Center
12:35PM 42.9878 -83.2539 265° West 456 525 32,000  Level Cleveland Center
12:36PM 42.9817 -83.4242 267° West 456 525 32,000  Level Cleveland Center
12:37PM 42.9731 -83.5997 266° West 462 532 32,000  Level Cleveland Center
12:38PM 42.9644 -83.7694 266° West 457 526 32,000  Level Cleveland Center
12:39PM 42.9469 -83.9417 262° West 457 526 32,000  Level Cleveland Center
12:40PM 42.9292 -84.1164 262° West 463 533 32,000  Level Cleveland Center
12:41PM 42.9114 -84.2856 262° West 463 533 32,000  Level Cleveland Center
12:42PM 42.8936 -84.4953 263° West 460 529 32,000  Level Chicago Center
12:43PM 42.8761 -84.6686 262° West 462 532 32,000  Level Chicago Center
12:44PM 42.8575 -84.8408 262° West 462 532 32,000  Level Chicago Center
12:45PM 42.8389 -85.0144 262° West 463 533 32,000  Level Chicago Center
12:46PM 42.8211 -85.1875 262° West 463 533 32,000  Level Chicago Center
12:47PM 42.8014 -85.3606 261° West 462 532 32,000 -780 Level Chicago Center
12:48PM 42.7800 -85.5367 261° West 469 540 30,500 -2,160 Descending Chicago Center
12:49PM 42.7431 -85.7403 256° West 462 532 27,600 -2,580 Descending Chicago Center
12:50PM 42.7136 -85.9008 256° West 441 507 25,300 -2,280 Descending Chicago Center
12:51PM 42.6861 -86.0556 256° West 422 486 22,900 -2,220 Descending Chicago Center
12:52PM 42.6575 -86.2117 256° West 422 486 20,800 -1,440 Descending Chicago Center
12:53PM 42.6269 -86.3669 255° West 423 487 20,000 -420 Descending Chicago Center
12:54PM 42.5986 -86.5206 256° West 420 483 20,000 -780 Level Chicago Center
12:55PM 42.5703 -86.6744 256° West 422 486 18,400 -1,740 Descending Chicago Center
12:56PM 42.5367 -86.8186 252° West 402 463 16,500 -1,860 Descending Chicago Center
12:57PM 42.4994 -86.9525 249° West 384 442 14,700 -1,980 Descending Chicago Center
12:58PM 42.4544 -87.1047 248° West 367 422 12,500 -1,860 Descending Chicago Center
12:59PM 42.4200 -87.2339 250° West 366 421 11,000 -780 Descending Chicago Center
01:00PM 42.3856 -87.3597 250° West 360 414 11,000  Level Chicago Center
01:01PM 42.3511 -87.4853 250° West 358 412 11,000  Level Chicago Center
01:02PM 42.2969 -87.5769 231° Southwest 325 374 11,000 -360 Level Chicago Center
01:03PM 42.2317 -87.6464 218° Southwest 302 348 10,300 -1,260 Descending Chicago Center
01:04PM 42.1561 -87.7283 219° Southwest 289 333 8,500 -1,740 Descending Chicago Center
01:05PM 42.1167 -87.7667 216° Southwest 279 321 7,600 -1,020 Descending Chicago TRACON
01:06PM 42.0667 -87.8333 225° Southwest 282 325 7,000 -300 Descending Chicago TRACON
01:07PM 42.0833 -87.9333 283° West 301 346 7,100 -180 Climbing Chicago TRACON
01:08PM 42.1000 -88.0333 283° West 260 299 6,700 -900 Descending Chicago TRACON
01:09PM 42.1000 -88.1333 270° West 251 289 5,400 -1,200 Descending Chicago TRACON
01:10PM 42.0883 -88.1767 250° West 260 299 4,700 -780 Descending Chicago Center
01:11PM 42.0250 -88.1808 183° South 211 243 4,100 -780 Descending Chicago Center
01:12PM 41.9961 -88.1192 122° Southeast 202 232 3,200 -840 Descending Chicago Center
01:13PM 41.9831 -88.0506 104° East 196 226 2,500 -720 Descending Chicago Center
01:14PM 41.9836 -87.9911 89° East 175 201 1,800 -540 Descending Chicago Center
01:15PM 41.9850 -87.9300 88° East 165 190 1,400 -420 Descending Chicago Center